»·PEaware :: PAA576 KONT-KTUS

PAA576 :: KONT-KTUS

FLIGHT INFORMATION

Flight Status: Arrived
Operator:
PanAm
More flights by this operator :: More flights under this callsign
Pilot: Anonymous 8274 (8274)
Aircraft: BOEING 727-200
(B722)
More flights by this aircraft type
Origin: KONT Ontario Intl
United States
Destination: KTUS Tucson Intl
United States
More flights between these airports :: More routes between these airports
Route: NIKKL1 TRM J169 BLH J65 PXR DINGO5
File this flight plan on PilotEdge
Remarks:
Altitude:
(Current/Filed)
29,000ft
Speed:
(Current/Filed)
470kts
Departed: 27-Sep-18 07:48 PM
Arrived: 27-Sep-18 08:51 PM
Distance/Time
Traveled:
354nm/1:03
Distance/Time
To Go:
Arrived

Flight Plot

Page will automatically refresh every two minutes.

Flight plan parsing failed; only flown route is shown


Map Options




Map Legend


Flown Route
Filed Route
Departure Airport
Arrival Airport
Navaid (VOR, NDB)
Fix

Horizontal Profiles

Position Reports

Time Latitude Longitude Heading Altitude Ground
Speed
27-Sep-18 19:14 34.059758 -117.593784 359 948ft 0kts
27-Sep-18 19:15 34.059758 -117.593784 359 948ft 0kts
27-Sep-18 19:16 34.059758 -117.593784 359 948ft 0kts
27-Sep-18 19:17 34.059758 -117.593784 359 948ft 0kts
27-Sep-18 19:18 34.059758 -117.593784 359 948ft 0kts
27-Sep-18 19:19 34.059758 -117.593784 359 948ft 0kts
27-Sep-18 19:20 34.059758 -117.593784 359 948ft 0kts
27-Sep-18 19:21 34.059758 -117.593784 359 948ft 0kts
27-Sep-18 19:22 34.059758 -117.593784 359 948ft 0kts
27-Sep-18 19:23 34.059758 -117.593784 359 948ft 0kts
27-Sep-18 19:24 34.059758 -117.593784 359 948ft 0kts
27-Sep-18 19:25 34.059758 -117.593784 359 948ft 0kts
27-Sep-18 19:26 34.059758 -117.593784 359 948ft 0kts
27-Sep-18 19:27 34.059758 -117.593784 359 948ft 0kts
27-Sep-18 19:28 34.059758 -117.593784 359 948ft 0kts
27-Sep-18 19:29 34.059758 -117.593784 359 948ft 0kts
27-Sep-18 19:30 34.059758 -117.593784 359 948ft 0kts
27-Sep-18 19:31 34.059758 -117.593784 359 948ft 0kts
27-Sep-18 19:32 34.059758 -117.593784 359 948ft 0kts
27-Sep-18 19:33 34.059758 -117.593784 359 948ft 0kts
27-Sep-18 19:34 34.059758 -117.593784 359 948ft 0kts
27-Sep-18 19:35 34.059758 -117.593784 359 948ft 0kts
27-Sep-18 19:36 34.059381 -117.593785 1 948ft 2kts
27-Sep-18 19:37 34.058981 -117.594248 84 948ft 2kts
27-Sep-18 19:38 34.058981 -117.594374 91 948ft 0kts
27-Sep-18 19:39 34.058981 -117.594374 91 948ft 0kts
27-Sep-18 19:40 34.058981 -117.594374 91 948ft 0kts
27-Sep-18 19:41 34.058981 -117.594374 91 948ft 0kts
27-Sep-18 19:42 34.058981 -117.594374 91 948ft 0kts
27-Sep-18 19:43 34.058989 -117.592603 89 948ft 14kts
27-Sep-18 19:44 34.058976 -117.585322 90 948ft 26kts
27-Sep-18 19:45 34.058046 -117.582706 180 948ft 0kts
27-Sep-18 19:46 34.058046 -117.582706 180 948ft 0kts
27-Sep-18 19:47 34.058046 -117.582706 180 948ft 0kts
27-Sep-18 19:48 34.058046 -117.582706 180 948ft 0kts
27-Sep-18 19:49 34.057366 -117.582718 180 948ft 8kts
27-Sep-18 19:50 34.056895 -117.593361 269 948ft 120kts
27-Sep-18 19:51 34.045629 -117.640905 208 2659ft 174kts
27-Sep-18 19:52 34.000105 -117.606006 132 4038ft 259kts
27-Sep-18 19:53 33.941140 -117.544365 143 6864ft 291kts
27-Sep-18 19:54 33.874092 -117.492296 142 9839ft 300kts
27-Sep-18 19:55 33.802320 -117.433197 140 11481ft 350kts
27-Sep-18 19:56 33.730837 -117.350202 106 13026ft 374kts
27-Sep-18 19:57 33.719874 -117.229550 91 13010ft 363kts
27-Sep-18 19:58 33.711854 -117.107466 91 15348ft 366kts
27-Sep-18 19:59 33.704308 -116.984158 91 17383ft 376kts
27-Sep-18 20:00 33.693569 -116.856645 93 19049ft 390kts
27-Sep-18 20:01 33.681817 -116.726229 95 20628ft 400kts
27-Sep-18 20:02 33.665635 -116.593000 97 22051ft 408kts
27-Sep-18 20:03 33.647402 -116.457508 94 23341ft 415kts
27-Sep-18 20:04 33.636833 -116.319469 89 24515ft 419kts
27-Sep-18 20:05 33.633295 -116.179656 89 25607ft 425kts
27-Sep-18 20:06 33.630005 -116.036854 89 26596ft 431kts
27-Sep-18 20:07 33.625828 -115.892608 91 27499ft 437kts
27-Sep-18 20:08 33.618850 -115.745950 91 28338ft 442kts
27-Sep-18 20:09 33.612059 -115.597617 90 28783ft 455kts
27-Sep-18 20:10 33.605308 -115.442516 90 28783ft 477kts
27-Sep-18 20:11 33.603154 -115.281707 88 28779ft 492kts
27-Sep-18 20:12 33.610126 -115.117528 85 28778ft 497kts
27-Sep-18 20:13 33.604016 -114.951738 94 28810ft 502kts
27-Sep-18 20:14 33.594214 -114.785341 90 28941ft 504kts
27-Sep-18 20:15 33.583963 -114.617682 93 28940ft 506kts
27-Sep-18 20:16 33.570806 -114.449739 93 28941ft 506kts
27-Sep-18 20:17 33.558458 -114.289622 93 28838ft 508kts
27-Sep-18 20:18 33.545656 -114.121041 93 28831ft 508kts
27-Sep-18 20:19 33.528672 -113.953564 95 28849ft 508kts
27-Sep-18 20:20 33.511490 -113.786213 95 28859ft 507kts
27-Sep-18 20:21 33.490075 -113.619405 97 28860ft 508kts
27-Sep-18 20:22 33.472790 -113.451473 95 28860ft 507kts
27-Sep-18 20:23 33.456217 -113.284958 95 28858ft 508kts
27-Sep-18 20:24 33.447623 -113.117851 87 28859ft 506kts
27-Sep-18 20:25 33.450523 -112.949755 87 28859ft 506kts
27-Sep-18 20:26 33.453552 -112.781855 87 28860ft 506kts
27-Sep-18 20:27 33.454216 -112.613357 89 28860ft 507kts
27-Sep-18 20:28 33.450375 -112.444653 89 28861ft 507kts
27-Sep-18 20:29 33.445816 -112.279884 90 28862ft 505kts
27-Sep-18 20:30 33.442821 -112.113427 90 28859ft 501kts
27-Sep-18 20:31 33.420971 -111.952922 122 28859ft 497kts
27-Sep-18 20:32 33.302632 -111.881565 177 28896ft 502kts
27-Sep-18 20:33 33.165438 -111.900957 192 28898ft 503kts
27-Sep-18 20:34 33.029180 -111.927875 174 28923ft 495kts
27-Sep-18 20:35 32.894812 -111.918808 174 28912ft 496kts
27-Sep-18 20:36 32.783295 -111.842564 120 28922ft 481kts
27-Sep-18 20:37 32.688345 -111.742525 145 28767ft 422kts
27-Sep-18 20:38 32.591103 -111.669795 145 26626ft 409kts
27-Sep-18 20:39 32.499837 -111.593727 142 24695ft 398kts
27-Sep-18 20:40 32.412837 -111.517961 142 22408ft 381kts
27-Sep-18 20:41 32.330991 -111.442031 142 19915ft 375kts
27-Sep-18 20:42 32.283759 -111.336239 108 17408ft 376kts
27-Sep-18 20:43 32.260217 -111.220600 128 15168ft 360kts
27-Sep-18 20:44 32.201716 -111.129807 129 13394ft 339kts
27-Sep-18 20:45 32.136962 -111.054341 139 11472ft 324kts
27-Sep-18 20:46 32.070063 -110.990030 139 9876ft 278kts
27-Sep-18 20:47 32.015510 -110.938552 139 8531ft 249kts
27-Sep-18 20:48 31.963005 -110.887057 127 7527ft 243kts
27-Sep-18 20:49 31.982345 -110.830195 10 6642ft 212kts
27-Sep-18 20:50 32.036059 -110.849844 333 5362ft 192kts
27-Sep-18 20:51 32.069467 -110.884752 315 3770ft 147kts
27-Sep-18 20:52 32.098318 -110.918523 315 2726ft 143kts
27-Sep-18 20:53 32.116398 -110.938787 1 2601ft 21kts
27-Sep-18 20:54 32.117789 -110.937880 29 2601ft 0kts
27-Sep-18 20:55 32.117789 -110.937880 29 2601ft 0kts
27-Sep-18 20:56 32.118128 -110.937812 13 2601ft 4kts

Navigation Log

Ident Type
Flight plan parsing failed, navigation log unavailable